Terminal Aerodrome Forecast
Issued by NWS Newport/Morehead City, NC

Home | Current Version | Previous Version | Graphics & Text | Print | Product List | Glossary On
Versions: 1 2 3 4 5 6 7 8 9 10 11 12 13 14 15 16 17 18 19 20 21 22 23 24 25 26 27
000
FTUS42 KMHX 281130
TAFEWN
TAF
KEWN 281130Z 2812/2912 23008KT P6SM VCSH SCT050 BKN140
     FM282000 18010KT P6SM VCTS BKN050CB
     FM290500 22006KT P6SM BKN045
     FM290700 00000KT 3SM BR BKN015=

USA.gov is the U.S. government's official web portal to all federal, state and local government web resources and services.